タシュケント の空港の天気 - METARとTAF

タシケント空港 ( UTTT / TAS ) - ウズベキスタン タシュケント
飛行場実況気象(Metar)
観測時間01/20 22:30 +05 (01/20 17:30 UTC)
風向・風速東 4m/s
視程10km以上
天気現象
なし
気温5℃
湿度61%
気圧1021hPa
METARUTTT 201730Z 08008KT CAVOK 05/M02 Q1021 R08R/CLRD70 NOSIG
過去の天気等 Google飛行場航空写真 Wunderground天気予報

過去48時間のMETAR

飛行場予報(TAF)
発表時間: 1/20 22:00 +05 (1/20 17:00 UTC)
予報対象時間: 20日23時 +05 ~ 21日23時 +05
風向・風速東 6m/s
視程6,000m
少しの雲 雲底高度 610m
全天の4割程度の積乱雲 雲底高度 1,220m
全天の8割程度の雲 雲底高度 3,050m
20日23時 +05 ~ 21日5時 +05 に一時的に
視程2,000m
天気現象もや 煙
21日5時 +05 ~ 21日15時 +05 に一時的に
風向・風速西南西 8m/s 瞬間風速 13m/s
視程2,100m
天気現象弱いしゅう雨 もや
全天の4割程度の雲 雲底高度 210m
全天の8割程度の積乱雲 雲底高度 610m
21日15時 +05 ~ 21日23時 +05 に一時的に
風向・風速北西 5m/s 瞬間風速 10m/s
視程1,100m
天気現象しゅう雪雨
全天の4割程度の雲 雲底高度 90m
全天の8割程度の積乱雲 雲底高度 300m
TAF UTTT 201700Z 2018/2118 09012KT 6000 FEW020 SCT040CB BKN100
TEMPO 2018/2024 2000 BR FU
TEMPO 2100/2110 25015G25KT 2100 -SHRA BR SCT007 BKN020CB
TEMPO 2110/2118 32010G20KT 1100 SHSNRA SCT003 BKN010CB